sensor_id;sensor_type;location;lat;lon;timestamp;temperature;humidity
14053;DHT22;7101;51.600;7.310;2024-03-17T00:02:19;4.40;27.40
14053;DHT22;7101;51.600;7.310;2024-03-17T00:04:45;4.30;31.00
14053;DHT22;7101;51.600;7.310;2024-03-17T00:07:14;4.30;35.20
14053;DHT22;7101;51.600;7.310;2024-03-17T00:09:41;4.30;38.00
14053;DHT22;7101;51.600;7.310;2024-03-17T00:12:08;4.30;35.90
14053;DHT22;7101;51.600;7.310;2024-03-17T00:14:35;4.30;56.80
14053;DHT22;7101;51.600;7.310;2024-03-17T00:17:03;4.20;62.20
14053;DHT22;7101;51.600;7.310;2024-03-17T00:19:29;4.20;57.90
14053;DHT22;7101;51.600;7.310;2024-03-17T00:21:57;4.10;42.70
14053;DHT22;7101;51.600;7.310;2024-03-17T00:24:24;4.10;51.30
14053;DHT22;7101;51.600;7.310;2024-03-17T00:26:51;4.00;56.10
14053;DHT22;7101;51.600;7.310;2024-03-17T00:29:17;4.00;68.10
14053;DHT22;7101;51.600;7.310;2024-03-17T00:31:43;4.00;92.70
14053;DHT22;7101;51.600;7.310;2024-03-17T00:34:09;4.00;92.90
14053;DHT22;7101;51.600;7.310;2024-03-17T00:36:36;3.90;95.60
14053;DHT22;7101;51.600;7.310;2024-03-17T00:39:02;3.90;98.40
14053;DHT22;7101;51.600;7.310;2024-03-17T00:41:30;3.90;99.90
14053;DHT22;7101;51.600;7.310;2024-03-17T00:43:56;3.90;99.90
14053;DHT22;7101;51.600;7.310;2024-03-17T00:46:23;3.90;99.90
14053;DHT22;7101;51.600;7.310;2024-03-17T00:48:49;3.90;96.60
14053;DHT22;7101;51.600;7.310;2024-03-17T00:51:16;3.80;99.90
14053;DHT22;7101;51.600;7.310;2024-03-17T00:53:42;3.80;99.90
14053;DHT22;7101;51.600;7.310;2024-03-17T00:56:09;3.80;99.90
14053;DHT22;7101;51.600;7.310;2024-03-17T00:58:36;3.80;99.90
14053;DHT22;7101;51.600;7.310;2024-03-17T01:01:04;3.80;99.90
14053;DHT22;7101;51.600;7.310;2024-03-17T01:03:30;3.70;99.90
14053;DHT22;7101;51.600;7.310;2024-03-17T01:05:57;3.60;97.20
14053;DHT22;7101;51.600;7.310;2024-03-17T01:08:22;3.60;98.50
14053;DHT22;7101;51.600;7.310;2024-03-17T01:10:49;3.50;99.90
14053;DHT22;7101;51.600;7.310;2024-03-17T01:13:15;3.50;99.90
14053;DHT22;7101;51.600;7.310;2024-03-17T01:15:44;3.50;99.90
14053;DHT22;7101;51.600;7.310;2024-03-17T01:18:10;3.50;99.90
14053;DHT22;7101;51.600;7.310;2024-03-17T01:20:37;3.50;99.90
14053;DHT22;7101;51.600;7.310;2024-03-17T01:23:04;3.50;99.90
14053;DHT22;7101;51.600;7.310;2024-03-17T01:25:33;3.40;99.90
14053;DHT22;7101;51.600;7.310;2024-03-17T01:28:01;3.40;99.90
14053;DHT22;7101;51.600;7.310;2024-03-17T01:30:28;3.30;99.90
14053;DHT22;7101;51.600;7.310;2024-03-17T01:32:57;3.20;99.20
14053;DHT22;7101;51.600;7.310;2024-03-17T01:35:25;3.10;99.90
14053;DHT22;7101;51.600;7.310;2024-03-17T01:37:52;3.10;99.90
14053;DHT22;7101;51.600;7.310;2024-03-17T01:40:18;3.10;99.90
14053;DHT22;7101;51.600;7.310;2024-03-17T01:42:44;3.00;99.90
14053;DHT22;7101;51.600;7.310;2024-03-17T01:45:27;2.90;99.90
14053;DHT22;7101;51.600;7.310;2024-03-17T01:47:57;2.90;99.90
14053;DHT22;7101;51.600;7.310;2024-03-17T01:50:24;2.80;99.90
14053;DHT22;7101;51.600;7.310;2024-03-17T01:52:52;2.90;99.90
14053;DHT22;7101;51.600;7.310;2024-03-17T01:55:19;2.90;99.90
14053;DHT22;7101;51.600;7.310;2024-03-17T01:57:48;2.90;99.90
14053;DHT22;7101;51.600;7.310;2024-03-17T02:00:15;2.80;99.90
14053;DHT22;7101;51.600;7.310;2024-03-17T02:02:41;2.70;99.90
14053;DHT22;7101;51.600;7.310;2024-03-17T02:05:08;2.70;99.90
14053;DHT22;7101;51.600;7.310;2024-03-17T02:07:36;2.70;99.90
14053;DHT22;7101;51.600;7.310;2024-03-17T02:10:02;2.60;99.90
14053;DHT22;7101;51.600;7.310;2024-03-17T02:12:31;2.60;99.90
14053;DHT22;7101;51.600;7.310;2024-03-17T02:14:57;2.60;99.90
14053;DHT22;7101;51.600;7.310;2024-03-17T02:17:24;2.60;99.90
14053;DHT22;7101;51.600;7.310;2024-03-17T02:19:51;2.50;99.90
14053;DHT22;7101;51.600;7.310;2024-03-17T02:22:20;2.60;99.90
14053;DHT22;7101;51.600;7.310;2024-03-17T02:24:46;2.50;99.90
14053;DHT22;7101;51.600;7.310;2024-03-17T02:27:13;2.50;99.90
14053;DHT22;7101;51.600;7.310;2024-03-17T02:29:39;2.40;99.90
14053;DHT22;7101;51.600;7.310;2024-03-17T02:32:06;2.40;99.90
14053;DHT22;7101;51.600;7.310;2024-03-17T02:34:34;2.40;99.90
14053;DHT22;7101;51.600;7.310;2024-03-17T02:37:01;2.40;99.90
14053;DHT22;7101;51.600;7.310;2024-03-17T02:39:30;2.50;99.90
14053;DHT22;7101;51.600;7.310;2024-03-17T02:42:03;2.40;99.90
14053;DHT22;7101;51.600;7.310;2024-03-17T02:44:31;2.40;99.90
14053;DHT22;7101;51.600;7.310;2024-03-17T02:47:05;2.40;99.90
14053;DHT22;7101;51.600;7.310;2024-03-17T02:49:34;2.40;99.90
14053;DHT22;7101;51.600;7.310;2024-03-17T02:52:03;2.40;99.90
14053;DHT22;7101;51.600;7.310;2024-03-17T02:54:32;2.40;99.90
14053;DHT22;7101;51.600;7.310;2024-03-17T02:57:01;2.40;99.90
14053;DHT22;7101;51.600;7.310;2024-03-17T02:59:27;2.30;99.90
14053;DHT22;7101;51.600;7.310;2024-03-17T03:01:54;2.30;99.90
14053;DHT22;7101;51.600;7.310;2024-03-17T03:04:21;2.30;99.90
14053;DHT22;7101;51.600;7.310;2024-03-17T03:06:49;2.30;99.90
14053;DHT22;7101;51.600;7.310;2024-03-17T03:09:17;2.30;99.90
14053;DHT22;7101;51.600;7.310;2024-03-17T03:11:52;2.30;99.90
14053;DHT22;7101;51.600;7.310;2024-03-17T03:14:19;2.40;99.90
14053;DHT22;7101;51.600;7.310;2024-03-17T03:16:47;2.30;99.90
14053;DHT22;7101;51.600;7.310;2024-03-17T03:19:15;2.30;99.90
14053;DHT22;7101;51.600;7.310;2024-03-17T03:21:41;2.30;99.90
14053;DHT22;7101;51.600;7.310;2024-03-17T03:24:08;2.30;99.90
14053;DHT22;7101;51.600;7.310;2024-03-17T03:26:35;2.30;99.90
14053;DHT22;7101;51.600;7.310;2024-03-17T03:29:04;2.20;99.90
14053;DHT22;7101;51.600;7.310;2024-03-17T03:31:31;2.30;99.90
14053;DHT22;7101;51.600;7.310;2024-03-17T03:33:58;2.20;99.90
14053;DHT22;7101;51.600;7.310;2024-03-17T03:36:27;2.20;99.90
14053;DHT22;7101;51.600;7.310;2024-03-17T03:38:54;2.20;99.90
14053;DHT22;7101;51.600;7.310;2024-03-17T03:41:23;2.20;99.90
14053;DHT22;7101;51.600;7.310;2024-03-17T03:43:50;2.20;99.90
14053;DHT22;7101;51.600;7.310;2024-03-17T03:46:19;2.10;99.90
14053;DHT22;7101;51.600;7.310;2024-03-17T03:48:46;2.10;99.90
14053;DHT22;7101;51.600;7.310;2024-03-17T03:51:13;2.00;99.90
14053;DHT22;7101;51.600;7.310;2024-03-17T03:53:40;1.90;99.90
14053;DHT22;7101;51.600;7.310;2024-03-17T03:56:08;1.90;99.90
14053;DHT22;7101;51.600;7.310;2024-03-17T03:58:36;2.00;99.90
14053;DHT22;7101;51.600;7.310;2024-03-17T04:01:04;2.00;99.90
14053;DHT22;7101;51.600;7.310;2024-03-17T04:03:32;1.90;99.90
14053;DHT22;7101;51.600;7.310;2024-03-17T04:06:03;1.90;99.90
14053;DHT22;7101;51.600;7.310;2024-03-17T04:08:30;1.90;99.90
14053;DHT22;7101;51.600;7.310;2024-03-17T04:10:57;1.80;99.90
14053;DHT22;7101;51.600;7.310;2024-03-17T04:13:25;1.90;99.90
14053;DHT22;7101;51.600;7.310;2024-03-17T04:15:52;1.90;99.90
14053;DHT22;7101;51.600;7.310;2024-03-17T04:18:22;1.90;99.90
14053;DHT22;7101;51.600;7.310;2024-03-17T04:20:51;1.90;99.90
14053;DHT22;7101;51.600;7.310;2024-03-17T04:23:19;1.90;99.90
14053;DHT22;7101;51.600;7.310;2024-03-17T04:25:46;1.90;99.90
14053;DHT22;7101;51.600;7.310;2024-03-17T04:28:13;1.90;99.90
14053;DHT22;7101;51.600;7.310;2024-03-17T04:30:40;1.90;99.90
14053;DHT22;7101;51.600;7.310;2024-03-17T04:33:08;1.90;99.90
14053;DHT22;7101;51.600;7.310;2024-03-17T04:35:36;1.80;99.90
14053;DHT22;7101;51.600;7.310;2024-03-17T04:38:07;1.80;99.90
14053;DHT22;7101;51.600;7.310;2024-03-17T04:40:39;1.80;99.90
14053;DHT22;7101;51.600;7.310;2024-03-17T04:43:06;1.80;99.90
14053;DHT22;7101;51.600;7.310;2024-03-17T04:45:33;1.80;99.90
14053;DHT22;7101;51.600;7.310;2024-03-17T04:48:00;1.90;99.90
14053;DHT22;7101;51.600;7.310;2024-03-17T04:50:27;2.00;99.90
14053;DHT22;7101;51.600;7.310;2024-03-17T04:52:57;2.00;99.90
14053;DHT22;7101;51.600;7.310;2024-03-17T04:55:25;2.10;99.90
14053;DHT22;7101;51.600;7.310;2024-03-17T04:57:52;2.10;99.90
14053;DHT22;7101;51.600;7.310;2024-03-17T05:00:19;2.10;99.90
14053;DHT22;7101;51.600;7.310;2024-03-17T05:02:46;2.10;99.90
14053;DHT22;7101;51.600;7.310;2024-03-17T05:05:13;2.20;99.90
14053;DHT22;7101;51.600;7.310;2024-03-17T05:07:40;2.20;99.90
14053;DHT22;7101;51.600;7.310;2024-03-17T05:10:07;2.30;99.90
14053;DHT22;7101;51.600;7.310;2024-03-17T05:12:35;2.30;99.90
14053;DHT22;7101;51.600;7.310;2024-03-17T05:15:02;2.30;99.90
14053;DHT22;7101;51.600;7.310;2024-03-17T05:17:31;2.40;99.90
14053;DHT22;7101;51.600;7.310;2024-03-17T05:19:57;2.40;99.90
14053;DHT22;7101;51.600;7.310;2024-03-17T05:22:24;2.40;99.90
14053;DHT22;7101;51.600;7.310;2024-03-17T05:24:51;2.50;99.90
14053;DHT22;7101;51.600;7.310;2024-03-17T05:27:19;2.50;99.90
14053;DHT22;7101;51.600;7.310;2024-03-17T05:29:47;2.40;99.90
14053;DHT22;7101;51.600;7.310;2024-03-17T05:32:16;2.30;99.90
14053;DHT22;7101;51.600;7.310;2024-03-17T05:34:42;2.20;99.90
14053;DHT22;7101;51.600;7.310;2024-03-17T05:37:09;2.20;99.90
14053;DHT22;7101;51.600;7.310;2024-03-17T05:39:36;2.10;99.90
14053;DHT22;7101;51.600;7.310;2024-03-17T05:42:03;2.10;99.90
14053;DHT22;7101;51.600;7.310;2024-03-17T05:44:31;2.00;99.90
14053;DHT22;7101;51.600;7.310;2024-03-17T05:47:16;2.00;99.90
14053;DHT22;7101;51.600;7.310;2024-03-17T05:49:43;2.00;99.90
14053;DHT22;7101;51.600;7.310;2024-03-17T05:52:11;2.10;99.90
14053;DHT22;7101;51.600;7.310;2024-03-17T05:54:37;2.10;99.90
14053;DHT22;7101;51.600;7.310;2024-03-17T05:57:04;2.10;99.90
14053;DHT22;7101;51.600;7.310;2024-03-17T05:59:32;2.20;99.90
14053;DHT22;7101;51.600;7.310;2024-03-17T06:01:59;2.30;99.90
14053;DHT22;7101;51.600;7.310;2024-03-17T06:04:27;2.30;99.90
14053;DHT22;7101;51.600;7.310;2024-03-17T06:06:54;2.40;99.90
14053;DHT22;7101;51.600;7.310;2024-03-17T06:09:21;2.40;99.90
14053;DHT22;7101;51.600;7.310;2024-03-17T06:11:48;2.40;99.90
14053;DHT22;7101;51.600;7.310;2024-03-17T06:14:16;2.50;99.90
14053;DHT22;7101;51.600;7.310;2024-03-17T06:16:42;2.60;99.90
14053;DHT22;7101;51.600;7.310;2024-03-17T06:19:10;2.80;99.90
14053;DHT22;7101;51.600;7.310;2024-03-17T06:21:38;2.90;99.90
14053;DHT22;7101;51.600;7.310;2024-03-17T06:24:05;3.10;99.90
14053;DHT22;7101;51.600;7.310;2024-03-17T06:26:33;3.10;99.90
14053;DHT22;7101;51.600;7.310;2024-03-17T06:29:01;3.30;99.90
14053;DHT22;7101;51.600;7.310;2024-03-17T06:31:27;3.40;99.90
14053;DHT22;7101;51.600;7.310;2024-03-17T06:33:54;3.40;99.90
14053;DHT22;7101;51.600;7.310;2024-03-17T06:36:21;3.60;99.90
14053;DHT22;7101;51.600;7.310;2024-03-17T06:38:49;3.80;99.90
14053;DHT22;7101;51.600;7.310;2024-03-17T06:41:16;4.00;99.90
14053;DHT22;7101;51.600;7.310;2024-03-17T06:43:43;4.10;99.90
14053;DHT22;7101;51.600;7.310;2024-03-17T06:46:10;4.60;99.90
14053;DHT22;7101;51.600;7.310;2024-03-17T06:48:37;5.30;99.90
14053;DHT22;7101;51.600;7.310;2024-03-17T06:51:04;6.20;89.80
14053;DHT22;7101;51.600;7.310;2024-03-17T06:53:31;6.90;1.00
14053;DHT22;7101;51.600;7.310;2024-03-17T06:56:00;7.70;1.00
14053;DHT22;7101;51.600;7.310;2024-03-17T06:58:28;8.80;99.90
14053;DHT22;7101;51.600;7.310;2024-03-17T07:00:56;9.50;99.90
14053;DHT22;7101;51.600;7.310;2024-03-17T07:03:24;10.20;94.50
14053;DHT22;7101;51.600;7.310;2024-03-17T07:05:52;10.90;99.90
14053;DHT22;7101;51.600;7.310;2024-03-17T07:08:19;11.80;44.10
14053;DHT22;7101;51.600;7.310;2024-03-17T07:10:55;11.80;32.00
14053;DHT22;7101;51.600;7.310;2024-03-17T07:13:24;11.60;99.90
14053;DHT22;7101;51.600;7.310;2024-03-17T07:15:50;11.00;1.00
14053;DHT22;7101;51.600;7.310;2024-03-17T07:18:17;10.60;33.80
14053;DHT22;7101;51.600;7.310;2024-03-17T07:20:44;10.90;99.90
14053;DHT22;7101;51.600;7.310;2024-03-17T07:23:13;11.30;1.00
14053;DHT22;7101;51.600;7.310;2024-03-17T07:25:40;11.90;99.90
14053;DHT22;7101;51.600;7.310;2024-03-17T07:28:06;12.40;1.00
14053;DHT22;7101;51.600;7.310;2024-03-17T07:30:35;12.50;99.90
14053;DHT22;7101;51.600;7.310;2024-03-17T07:33:01;12.90;1.00
14053;DHT22;7101;51.600;7.310;2024-03-17T07:35:28;13.00;1.00
14053;DHT22;7101;51.600;7.310;2024-03-17T07:37:56;12.30;99.90
14053;DHT22;7101;51.600;7.310;2024-03-17T07:40:24;11.60;59.10
14053;DHT22;7101;51.600;7.310;2024-03-17T07:42:51;11.30;1.00
14053;DHT22;7101;51.600;7.310;2024-03-17T07:45:18;10.50;99.90
14053;DHT22;7101;51.600;7.310;2024-03-17T07:47:47;10.00;1.00
14053;DHT22;7101;51.600;7.310;2024-03-17T07:50:13;9.60;99.90
14053;DHT22;7101;51.600;7.310;2024-03-17T07:52:40;9.40;1.00
14053;DHT22;7101;51.600;7.310;2024-03-17T07:55:07;9.50;1.00
14053;DHT22;7101;51.600;7.310;2024-03-17T07:57:34;9.70;1.00
14053;DHT22;7101;51.600;7.310;2024-03-17T08:00:01;9.80;1.00
14053;DHT22;7101;51.600;7.310;2024-03-17T08:02:29;9.90;99.90
14053;DHT22;7101;51.600;7.310;2024-03-17T08:04:57;10.00;1.00
14053;DHT22;7101;51.600;7.310;2024-03-17T08:07:24;9.70;99.90
14053;DHT22;7101;51.600;7.310;2024-03-17T08:09:50;9.60;1.00
14053;DHT22;7101;51.600;7.310;2024-03-17T08:12:17;9.50;70.50
14053;DHT22;7101;51.600;7.310;2024-03-17T08:14:44;9.50;1.00
14053;DHT22;7101;51.600;7.310;2024-03-17T08:17:11;9.80;35.50
14053;DHT22;7101;51.600;7.310;2024-03-17T08:19:39;10.00;1.00
14053;DHT22;7101;51.600;7.310;2024-03-17T08:22:08;10.00;1.00
14053;DHT22;7101;51.600;7.310;2024-03-17T08:24:34;9.90;1.00
14053;DHT22;7101;51.600;7.310;2024-03-17T08:27:01;10.10;99.90
14053;DHT22;7101;51.600;7.310;2024-03-17T08:29:28;10.20;1.00
14053;DHT22;7101;51.600;7.310;2024-03-17T08:31:57;10.30;1.00
14053;DHT22;7101;51.600;7.310;2024-03-17T08:34:24;10.50;99.90
14053;DHT22;7101;51.600;7.310;2024-03-17T08:36:51;10.90;1.00
14053;DHT22;7101;51.600;7.310;2024-03-17T08:39:19;11.10;1.00
14053;DHT22;7101;51.600;7.310;2024-03-17T08:41:46;10.80;74.30
14053;DHT22;7101;51.600;7.310;2024-03-17T08:44:12;11.20;99.90
14053;DHT22;7101;51.600;7.310;2024-03-17T08:46:39;11.50;1.00
14053;DHT22;7101;51.600;7.310;2024-03-17T08:49:06;11.60;1.00
14053;DHT22;7101;51.600;7.310;2024-03-17T08:51:33;11.20;99.90
14053;DHT22;7101;51.600;7.310;2024-03-17T08:53:59;11.20;1.00
14053;DHT22;7101;51.600;7.310;2024-03-17T08:56:28;11.20;1.00
14053;DHT22;7101;51.600;7.310;2024-03-17T08:58:54;11.60;1.00
14053;DHT22;7101;51.600;7.310;2024-03-17T09:01:21;11.90;99.90
14053;DHT22;7101;51.600;7.310;2024-03-17T09:03:49;12.00;99.90
14053;DHT22;7101;51.600;7.310;2024-03-17T09:06:17;12.10;99.90
14053;DHT22;7101;51.600;7.310;2024-03-17T09:08:46;12.50;99.90
14053;DHT22;7101;51.600;7.310;2024-03-17T09:11:14;12.90;1.00
14053;DHT22;7101;51.600;7.310;2024-03-17T09:13:42;13.20;1.00
14053;DHT22;7101;51.600;7.310;2024-03-17T09:16:10;13.20;1.00
14053;DHT22;7101;51.600;7.310;2024-03-17T09:18:39;12.80;99.90
14053;DHT22;7101;51.600;7.310;2024-03-17T09:21:07;12.20;1.00
14053;DHT22;7101;51.600;7.310;2024-03-17T09:23:34;12.20;1.00
14053;DHT22;7101;51.600;7.310;2024-03-17T09:26:03;12.40;99.90
14053;DHT22;7101;51.600;7.310;2024-03-17T09:28:32;12.20;1.00
14053;DHT22;7101;51.600;7.310;2024-03-17T09:31:00;12.20;99.90
14053;DHT22;7101;51.600;7.310;2024-03-17T09:33:29;12.20;99.90
14053;DHT22;7101;51.600;7.310;2024-03-17T09:35:57;12.20;99.90
14053;DHT22;7101;51.600;7.310;2024-03-17T09:38:24;12.30;99.90
14053;DHT22;7101;51.600;7.310;2024-03-17T09:40:51;12.20;1.00
14053;DHT22;7101;51.600;7.310;2024-03-17T09:43:20;12.50;99.90
14053;DHT22;7101;51.600;7.310;2024-03-17T09:45:47;12.60;1.00
14053;DHT22;7101;51.600;7.310;2024-03-17T09:48:16;12.60;99.90
14053;DHT22;7101;51.600;7.310;2024-03-17T09:50:50;12.70;99.90
14053;DHT22;7101;51.600;7.310;2024-03-17T09:53:23;12.80;99.90
14053;DHT22;7101;51.600;7.310;2024-03-17T09:55:50;12.90;99.90
14053;DHT22;7101;51.600;7.310;2024-03-17T09:58:17;13.00;1.00
14053;DHT22;7101;51.600;7.310;2024-03-17T10:00:45;13.20;99.90
14053;DHT22;7101;51.600;7.310;2024-03-17T10:03:12;13.30;99.90
14053;DHT22;7101;51.600;7.310;2024-03-17T10:05:40;13.30;99.90
14053;DHT22;7101;51.600;7.310;2024-03-17T10:08:20;13.30;1.00
14053;DHT22;7101;51.600;7.310;2024-03-17T10:10:52;13.70;1.00
14053;DHT22;7101;51.600;7.310;2024-03-17T10:13:19;14.10;99.90
14053;DHT22;7101;51.600;7.310;2024-03-17T10:15:48;14.50;9.60
14053;DHT22;7101;51.600;7.310;2024-03-17T10:18:20;14.70;1.00
14053;DHT22;7101;51.600;7.310;2024-03-17T10:20:49;14.30;1.00
14053;DHT22;7101;51.600;7.310;2024-03-17T10:23:20;13.90;1.00
14053;DHT22;7101;51.600;7.310;2024-03-17T10:25:47;13.80;99.90
14053;DHT22;7101;51.600;7.310;2024-03-17T10:28:16;13.70;1.00
14053;DHT22;7101;51.600;7.310;2024-03-17T10:30:57;13.60;1.00
14053;DHT22;7101;51.600;7.310;2024-03-17T10:33:26;13.40;99.90
14053;DHT22;7101;51.600;7.310;2024-03-17T10:36:01;13.40;1.00
14053;DHT22;7101;51.600;7.310;2024-03-17T10:38:28;13.50;1.00
14053;DHT22;7101;51.600;7.310;2024-03-17T10:40:56;13.30;99.90
14053;DHT22;7101;51.600;7.310;2024-03-17T10:43:23;13.20;1.00
14053;DHT22;7101;51.600;7.310;2024-03-17T10:45:52;13.20;1.00
14053;DHT22;7101;51.600;7.310;2024-03-17T10:48:21;13.30;1.00
14053;DHT22;7101;51.600;7.310;2024-03-17T10:50:49;13.40;1.00
14053;DHT22;7101;51.600;7.310;2024-03-17T10:53:20;13.60;99.90
14053;DHT22;7101;51.600;7.310;2024-03-17T10:55:58;13.60;1.00
14053;DHT22;7101;51.600;7.310;2024-03-17T10:58:33;13.80;99.90
14053;DHT22;7101;51.600;7.310;2024-03-17T11:01:01;14.00;1.00
14053;DHT22;7101;51.600;7.310;2024-03-17T11:03:31;14.10;1.00
14053;DHT22;7101;51.600;7.310;2024-03-17T11:05:58;14.30;1.00
14053;DHT22;7101;51.600;7.310;2024-03-17T11:08:27;14.40;99.90
14053;DHT22;7101;51.600;7.310;2024-03-17T11:10:54;14.40;99.90
14053;DHT22;7101;51.600;7.310;2024-03-17T11:13:24;14.40;99.90
14053;DHT22;7101;51.600;7.310;2024-03-17T11:15:52;14.40;99.90
14053;DHT22;7101;51.600;7.310;2024-03-17T11:18:39;14.30;99.90
14053;DHT22;7101;51.600;7.310;2024-03-17T11:21:18;14.10;99.90
14053;DHT22;7101;51.600;7.310;2024-03-17T11:23:55;14.50;99.90
14053;DHT22;7101;51.600;7.310;2024-03-17T11:26:27;14.60;99.90
14053;DHT22;7101;51.600;7.310;2024-03-17T11:28:54;14.30;99.90
14053;DHT22;7101;51.600;7.310;2024-03-17T11:31:34;14.10;99.90
14053;DHT22;7101;51.600;7.310;2024-03-17T11:34:01;14.50;99.90
14053;DHT22;7101;51.600;7.310;2024-03-17T11:36:32;15.00;99.90
14053;DHT22;7101;51.600;7.310;2024-03-17T11:39:01;15.10;99.90
14053;DHT22;7101;51.600;7.310;2024-03-17T11:41:36;15.10;99.90
14053;DHT22;7101;51.600;7.310;2024-03-17T11:44:18;15.40;99.90
14053;DHT22;7101;51.600;7.310;2024-03-17T11:46:50;15.60;92.40
14053;DHT22;7101;51.600;7.310;2024-03-17T11:49:19;15.50;1.00
14053;DHT22;7101;51.600;7.310;2024-03-17T11:51:47;15.70;1.00
14053;DHT22;7101;51.600;7.310;2024-03-17T11:54:18;15.90;1.00
14053;DHT22;7101;51.600;7.310;2024-03-17T11:56:47;16.00;1.00
14053;DHT22;7101;51.600;7.310;2024-03-17T11:59:13;16.20;1.00
14053;DHT22;7101;51.600;7.310;2024-03-17T12:01:43;16.30;1.00
14053;DHT22;7101;51.600;7.310;2024-03-17T12:04:10;16.40;1.00
14053;DHT22;7101;51.600;7.310;2024-03-17T12:06:38;15.90;1.00
14053;DHT22;7101;51.600;7.310;2024-03-17T12:09:19;15.30;1.00
14053;DHT22;7101;51.600;7.310;2024-03-17T12:11:47;15.60;1.00
14053;DHT22;7101;51.600;7.310;2024-03-17T12:14:16;15.90;1.00
14053;DHT22;7101;51.600;7.310;2024-03-17T12:16:49;16.10;1.00
14053;DHT22;7101;51.600;7.310;2024-03-17T12:19:15;16.10;1.00
14053;DHT22;7101;51.600;7.310;2024-03-17T12:21:46;15.70;1.00
14053;DHT22;7101;51.600;7.310;2024-03-17T12:24:18;16.10;1.00
14053;DHT22;7101;51.600;7.310;2024-03-17T12:26:47;16.30;1.00
14053;DHT22;7101;51.600;7.310;2024-03-17T12:29:23;16.10;1.00
14053;DHT22;7101;51.600;7.310;2024-03-17T12:31:51;16.10;1.00
14053;DHT22;7101;51.600;7.310;2024-03-17T12:34:17;15.70;1.00
14053;DHT22;7101;51.600;7.310;2024-03-17T12:36:45;15.50;1.00
14053;DHT22;7101;51.600;7.310;2024-03-17T12:39:14;15.20;1.00
14053;DHT22;7101;51.600;7.310;2024-03-17T12:41:45;15.30;1.00
14053;DHT22;7101;51.600;7.310;2024-03-17T12:44:22;15.50;1.00
14053;DHT22;7101;51.600;7.310;2024-03-17T12:46:54;15.30;1.00
14053;DHT22;7101;51.600;7.310;2024-03-17T12:49:20;15.30;1.00
14053;DHT22;7101;51.600;7.310;2024-03-17T12:51:47;15.20;1.00
14053;DHT22;7101;51.600;7.310;2024-03-17T12:54:15;15.30;1.00
14053;DHT22;7101;51.600;7.310;2024-03-17T12:56:44;15.20;1.00
14053;DHT22;7101;51.600;7.310;2024-03-17T12:59:37;15.30;1.00
14053;DHT22;7101;51.600;7.310;2024-03-17T13:02:22;15.20;1.00
14053;DHT22;7101;51.600;7.310;2024-03-17T13:05:14;15.20;1.00
14053;DHT22;7101;51.600;7.310;2024-03-17T13:07:42;15.50;1.00
14053;DHT22;7101;51.600;7.310;2024-03-17T13:10:12;15.70;1.00
14053;DHT22;7101;51.600;7.310;2024-03-17T13:12:41;15.90;1.00
14053;DHT22;7101;51.600;7.310;2024-03-17T13:15:12;15.80;1.00
14053;DHT22;7101;51.600;7.310;2024-03-17T13:17:40;15.60;1.00
14053;DHT22;7101;51.600;7.310;2024-03-17T13:20:11;15.20;1.00
14053;DHT22;7101;51.600;7.310;2024-03-17T13:22:39;15.20;1.00
14053;DHT22;7101;51.600;7.310;2024-03-17T13:25:08;15.20;1.00
14053;DHT22;7101;51.600;7.310;2024-03-17T13:27:35;15.40;1.00
14053;DHT22;7101;51.600;7.310;2024-03-17T13:30:06;15.80;1.00
14053;DHT22;7101;51.600;7.310;2024-03-17T13:32:34;15.50;1.00
14053;DHT22;7101;51.600;7.310;2024-03-17T13:35:01;15.40;1.00
14053;DHT22;7101;51.600;7.310;2024-03-17T13:37:28;15.60;1.00
14053;DHT22;7101;51.600;7.310;2024-03-17T13:39:55;16.00;1.00
14053;DHT22;7101;51.600;7.310;2024-03-17T13:42:22;16.10;1.00
14053;DHT22;7101;51.600;7.310;2024-03-17T13:44:49;16.30;1.00
14053;DHT22;7101;51.600;7.310;2024-03-17T13:47:17;15.80;1.00
14053;DHT22;7101;51.600;7.310;2024-03-17T13:49:44;15.60;1.00
14053;DHT22;7101;51.600;7.310;2024-03-17T13:52:12;15.70;1.00
14053;DHT22;7101;51.600;7.310;2024-03-17T13:54:39;15.70;1.00
14053;DHT22;7101;51.600;7.310;2024-03-17T13:57:06;15.50;1.00
14053;DHT22;7101;51.600;7.310;2024-03-17T13:59:32;15.60;1.00
14053;DHT22;7101;51.600;7.310;2024-03-17T14:02:00;15.60;1.00
14053;DHT22;7101;51.600;7.310;2024-03-17T14:04:29;15.70;1.00
14053;DHT22;7101;51.600;7.310;2024-03-17T14:06:56;15.90;1.00
14053;DHT22;7101;51.600;7.310;2024-03-17T14:09:23;15.90;1.00
14053;DHT22;7101;51.600;7.310;2024-03-17T14:11:49;16.00;1.00
14053;DHT22;7101;51.600;7.310;2024-03-17T14:14:16;16.00;1.00
14053;DHT22;7101;51.600;7.310;2024-03-17T14:16:43;15.90;1.00
14053;DHT22;7101;51.600;7.310;2024-03-17T14:19:10;15.60;1.00
14053;DHT22;7101;51.600;7.310;2024-03-17T14:21:38;15.40;1.00
14053;DHT22;7101;51.600;7.310;2024-03-17T14:24:05;15.60;1.00
14053;DHT22;7101;51.600;7.310;2024-03-17T14:26:34;15.50;99.90
14053;DHT22;7101;51.600;7.310;2024-03-17T14:29:01;15.30;99.90
14053;DHT22;7101;51.600;7.310;2024-03-17T14:31:32;15.10;99.90
14053;DHT22;7101;51.600;7.310;2024-03-17T14:34:01;14.90;99.90
14053;DHT22;7101;51.600;7.310;2024-03-17T14:36:28;14.90;99.90
14053;DHT22;7101;51.600;7.310;2024-03-17T14:38:57;14.90;99.90
14053;DHT22;7101;51.600;7.310;2024-03-17T14:41:24;14.90;99.90
14053;DHT22;7101;51.600;7.310;2024-03-17T14:43:51;14.80;99.90
14053;DHT22;7101;51.600;7.310;2024-03-17T14:46:18;14.90;99.90
14053;DHT22;7101;51.600;7.310;2024-03-17T14:48:45;14.60;99.90
14053;DHT22;7101;51.600;7.310;2024-03-17T14:51:12;14.60;99.90
14053;DHT22;7101;51.600;7.310;2024-03-17T14:53:39;14.50;99.90
14053;DHT22;7101;51.600;7.310;2024-03-17T14:56:15;14.60;99.90
14053;DHT22;7101;51.600;7.310;2024-03-17T14:58:42;14.60;99.90
14053;DHT22;7101;51.600;7.310;2024-03-17T15:01:09;14.60;99.90
14053;DHT22;7101;51.600;7.310;2024-03-17T15:03:36;14.60;99.90
14053;DHT22;7101;51.600;7.310;2024-03-17T15:06:03;14.50;1.00
14053;DHT22;7101;51.600;7.310;2024-03-17T15:08:30;14.50;99.90
14053;DHT22;7101;51.600;7.310;2024-03-17T15:10:57;14.40;99.90
14053;DHT22;7101;51.600;7.310;2024-03-17T15:13:26;14.50;1.00
14053;DHT22;7101;51.600;7.310;2024-03-17T15:15:53;14.70;99.90
14053;DHT22;7101;51.600;7.310;2024-03-17T15:18:20;14.60;99.90
14053;DHT22;7101;51.600;7.310;2024-03-17T15:20:51;14.60;1.00
14053;DHT22;7101;51.600;7.310;2024-03-17T15:23:18;14.50;99.90
14053;DHT22;7101;51.600;7.310;2024-03-17T15:25:45;14.70;1.00
14053;DHT22;7101;51.600;7.310;2024-03-17T15:28:12;14.60;99.90
14053;DHT22;7101;51.600;7.310;2024-03-17T15:30:43;14.80;1.00
14053;DHT22;7101;51.600;7.310;2024-03-17T15:33:10;14.50;1.00
14053;DHT22;7101;51.600;7.310;2024-03-17T15:35:37;14.50;99.90
14053;DHT22;7101;51.600;7.310;2024-03-17T15:38:08;14.50;99.90
14053;DHT22;7101;51.600;7.310;2024-03-17T15:40:37;14.20;99.90
14053;DHT22;7101;51.600;7.310;2024-03-17T15:43:04;14.30;1.00
14053;DHT22;7101;51.600;7.310;2024-03-17T15:45:30;14.20;99.90
14053;DHT22;7101;51.600;7.310;2024-03-17T15:47:59;14.10;1.00
14053;DHT22;7101;51.600;7.310;2024-03-17T15:50:26;14.10;1.00
14053;DHT22;7101;51.600;7.310;2024-03-17T15:52:53;14.10;1.00
14053;DHT22;7101;51.600;7.310;2024-03-17T15:55:19;14.00;1.00
14053;DHT22;7101;51.600;7.310;2024-03-17T15:57:48;14.00;1.00
14053;DHT22;7101;51.600;7.310;2024-03-17T16:00:15;13.90;1.00
14053;DHT22;7101;51.600;7.310;2024-03-17T16:02:44;13.90;1.00
14053;DHT22;7101;51.600;7.310;2024-03-17T16:05:16;13.80;1.00
14053;DHT22;7101;51.600;7.310;2024-03-17T16:07:45;13.70;1.00